createdAt,value
2018-08-11T00:01:43.596Z,17.50
2018-08-11T00:04:12.802Z,17.50
2018-08-11T00:06:42.205Z,17.40
2018-08-11T00:09:12.274Z,17.40
2018-08-11T00:11:42.183Z,17.40
2018-08-11T00:14:11.752Z,17.30
2018-08-11T00:16:40.887Z,17.30
2018-08-11T00:19:10.244Z,17.30
2018-08-11T00:21:39.887Z,17.30
2018-08-11T00:24:09.034Z,17.40
2018-08-11T00:26:38.353Z,17.40
2018-08-11T00:29:07.811Z,17.30
2018-08-11T00:31:37.309Z,17.20
2018-08-11T00:34:06.656Z,17.10
2018-08-11T00:36:36.024Z,17.20
2018-08-11T00:39:07.513Z,17.10
2018-08-11T00:41:37.067Z,17.10
2018-08-11T00:44:06.733Z,17.00
2018-08-11T00:46:35.997Z,17.10
2018-08-11T00:49:05.270Z,16.90
2018-08-11T00:51:34.513Z,16.90
2018-08-11T00:54:20.810Z,16.80
2018-08-11T00:56:50.014Z,16.70
2018-08-11T00:59:19.315Z,16.80
2018-08-11T01:01:48.515Z,16.70
2018-08-11T01:04:21.528Z,16.70
2018-08-11T01:06:50.697Z,16.80
2018-08-11T01:09:20.037Z,16.70
2018-08-11T01:11:49.225Z,16.50
2018-08-11T01:14:18.560Z,16.50
2018-08-11T01:16:47.964Z,16.50
2018-08-11T01:19:17.197Z,16.50
2018-08-11T01:21:46.335Z,16.40
2018-08-11T01:24:15.431Z,16.30
2018-08-11T01:26:44.873Z,16.40
2018-08-11T01:29:13.997Z,16.40
2018-08-11T01:31:43.225Z,16.20
2018-08-11T01:34:12.794Z,16.00
2018-08-11T01:36:43.255Z,16.00
2018-08-11T01:39:12.900Z,16.00
2018-08-11T01:41:41.968Z,15.80
2018-08-11T01:44:11.130Z,16.00
2018-08-11T01:46:40.557Z,16.10
2018-08-11T01:49:09.842Z,16.20
2018-08-11T01:51:39.120Z,16.20
2018-08-11T01:54:08.372Z,16.10
2018-08-11T01:56:37.823Z,16.00
2018-08-11T01:59:07.055Z,15.90
2018-08-11T02:01:36.559Z,15.80
2018-08-11T02:04:05.682Z,15.80
2018-08-11T02:06:34.662Z,15.80
2018-08-11T02:09:04.278Z,15.90
2018-08-11T02:11:33.471Z,15.80
2018-08-11T02:14:02.612Z,15.80
2018-08-11T02:16:31.737Z,15.70
2018-08-11T02:19:01.030Z,15.70
2018-08-11T02:21:30.221Z,15.70
2018-08-11T02:23:59.482Z,15.70
2018-08-11T02:26:29.030Z,15.70
2018-08-11T02:28:58.188Z,15.70
2018-08-11T02:31:27.554Z,15.70
2018-08-11T02:33:56.886Z,15.70
2018-08-11T02:36:26.158Z,15.70
2018-08-11T02:38:55.461Z,15.70
2018-08-11T02:41:24.668Z,15.70
2018-08-11T02:43:54.170Z,15.60
2018-08-11T02:46:23.574Z,15.50
2018-08-11T02:48:53.285Z,15.50
2018-08-11T02:51:22.486Z,15.50
2018-08-11T02:53:51.985Z,15.50
2018-08-11T02:56:21.244Z,15.50
2018-08-11T02:58:50.411Z,15.50
2018-08-11T03:01:19.825Z,15.30
2018-08-11T03:03:49.034Z,15.20
2018-08-11T03:06:18.288Z,15.00
2018-08-11T03:08:47.283Z,14.90
2018-08-11T03:11:16.696Z,15.00
2018-08-11T03:13:46.015Z,15.00
2018-08-11T03:16:15.385Z,15.00
2018-08-11T03:18:44.581Z,15.00
2018-08-11T03:21:13.826Z,15.00
2018-08-11T03:23:43.257Z,15.00
2018-08-11T03:26:12.551Z,15.00
2018-08-11T03:28:41.699Z,15.00
2018-08-11T03:31:10.990Z,14.90
2018-08-11T03:33:40.527Z,14.90
2018-08-11T03:36:09.643Z,14.80
2018-08-11T03:38:39.121Z,14.70
2018-08-11T03:41:08.361Z,14.70
2018-08-11T03:43:37.588Z,14.70
2018-08-11T03:46:07.419Z,14.70
2018-08-11T03:48:36.416Z,14.70
2018-08-11T03:51:05.736Z,14.70
2018-08-11T03:53:35.153Z,14.60
2018-08-11T03:56:04.285Z,14.50
2018-08-11T03:58:33.636Z,14.50
2018-08-11T04:01:19.795Z,14.50
2018-08-11T04:03:49.132Z,14.40
2018-08-11T04:06:18.453Z,14.40
2018-08-11T04:08:47.674Z,14.40
2018-08-11T04:11:16.827Z,14.40
2018-08-11T04:13:46.453Z,14.40
2018-08-11T04:16:15.656Z,14.30
2018-08-11T04:18:45.065Z,14.20
2018-08-11T04:21:14.319Z,14.20
2018-08-11T04:23:43.719Z,14.20
2018-08-11T04:26:13.148Z,14.30
2018-08-11T04:28:42.838Z,14.30
2018-08-11T04:31:16.803Z,14.20
2018-08-11T04:33:46.078Z,14.10
2018-08-11T04:36:15.510Z,14.10
2018-08-11T04:38:44.634Z,14.10
2018-08-11T04:41:13.990Z,14.10
2018-08-11T04:43:43.296Z,14.10
2018-08-11T04:46:12.819Z,14.00
2018-08-11T04:48:42.011Z,14.00
2018-08-11T04:51:11.147Z,14.00
2018-08-11T04:53:40.493Z,14.00
2018-08-11T04:56:10.535Z,13.90
2018-08-11T04:58:39.923Z,13.90
2018-08-11T05:01:09.140Z,14.00
2018-08-11T05:03:38.370Z,14.00
2018-08-11T05:06:07.667Z,14.10
2018-08-11T05:08:37.101Z,14.10
2018-08-11T05:11:06.285Z,14.20
2018-08-11T05:13:35.747Z,14.30
2018-08-11T05:16:04.996Z,14.30
2018-08-11T05:18:34.322Z,14.30
2018-08-11T05:21:03.653Z,14.40
2018-08-11T05:23:32.966Z,14.50
2018-08-11T05:26:02.074Z,14.50
2018-08-11T05:28:31.278Z,14.60
2018-08-11T05:31:00.550Z,14.70
2018-08-11T05:33:40.439Z,14.70
2018-08-11T05:36:09.962Z,14.60
2018-08-11T05:38:39.659Z,14.70
2018-08-11T05:41:11.926Z,14.80
2018-08-11T05:43:40.990Z,14.90
2018-08-11T05:46:09.988Z,15.00
2018-08-11T05:48:39.083Z,15.10
2018-08-11T05:51:08.663Z,15.20
2018-08-11T05:53:38.030Z,15.40
2018-08-11T05:56:07.287Z,15.40
2018-08-11T05:58:36.676Z,15.70
2018-08-11T06:01:06.026Z,15.60
2018-08-11T06:03:35.757Z,15.70
2018-08-11T06:06:05.104Z,15.80
2018-08-11T06:08:34.571Z,16.00
2018-08-11T06:11:03.923Z,16.10
2018-08-11T06:13:33.302Z,15.80
2018-08-11T06:16:02.480Z,16.10
2018-08-11T06:18:32.429Z,16.20
2018-08-11T06:21:01.770Z,16.70
2018-08-11T06:23:31.551Z,16.60
2018-08-11T06:26:01.213Z,16.40
2018-08-11T06:28:30.632Z,16.50
2018-08-11T06:30:59.744Z,16.90
2018-08-11T06:33:29.132Z,17.50
2018-08-11T06:35:58.575Z,17.80
2018-08-11T06:38:27.997Z,17.50
2018-08-11T06:40:57.515Z,17.70
2018-08-11T06:43:26.663Z,18.00
2018-08-11T06:45:55.932Z,17.60
2018-08-11T06:48:25.071Z,17.50
2018-08-11T06:50:54.223Z,18.20
2018-08-11T06:53:23.501Z,17.80
2018-08-11T06:55:52.925Z,17.70
2018-08-11T06:58:22.263Z,18.40
2018-08-11T07:00:51.590Z,19.10
2018-08-11T07:03:21.139Z,19.00
2018-08-11T07:06:07.735Z,19.00
2018-08-11T07:08:37.992Z,17.90
2018-08-11T07:11:07.435Z,18.10
2018-08-11T07:13:36.834Z,18.80
2018-08-11T07:16:05.874Z,18.40
2018-08-11T07:18:34.850Z,18.00
2018-08-11T07:21:03.966Z,17.70
2018-08-11T07:23:33.066Z,17.90
2018-08-11T07:26:02.251Z,18.80
2018-08-11T07:28:31.147Z,19.50
2018-08-11T07:31:00.029Z,19.40
2018-08-11T07:33:39.593Z,18.30
2018-08-11T07:36:08.863Z,18.20
2018-08-11T07:38:39.082Z,19.20
2018-08-11T07:41:07.981Z,18.80
2018-08-11T07:43:37.287Z,18.80
2018-08-11T07:46:06.745Z,18.40
2018-08-11T07:48:38.784Z,19.20
2018-08-11T07:51:15.228Z,19.00
2018-08-11T07:53:44.336Z,19.20
2018-08-11T07:56:13.521Z,19.70
2018-08-11T07:58:54.801Z,19.70
2018-08-11T08:01:24.074Z,19.20
2018-08-11T08:03:53.250Z,19.50
2018-08-11T08:06:22.428Z,19.70
2018-08-11T08:08:51.762Z,19.00
2018-08-11T08:11:21.211Z,19.50
2018-08-11T08:13:50.615Z,19.20
2018-08-11T08:16:20.140Z,19.30
2018-08-11T08:18:49.770Z,19.00
2018-08-11T08:21:19.009Z,18.80
2018-08-11T08:23:48.321Z,19.50
2018-08-11T08:26:21.058Z,19.90
2018-08-11T08:28:50.168Z,20.10
2018-08-11T08:31:19.871Z,20.20
2018-08-11T08:33:49.285Z,20.10
2018-08-11T08:36:18.577Z,19.70
2018-08-11T08:38:48.047Z,20.30
2018-08-11T08:41:18.119Z,20.60
2018-08-11T08:43:47.331Z,21.20
2018-08-11T08:46:22.601Z,21.10
2018-08-11T08:48:52.156Z,20.20
2018-08-11T08:51:21.718Z,20.10
2018-08-11T08:53:51.089Z,20.20
2018-08-11T08:56:20.563Z,20.40
2018-08-11T08:58:49.997Z,20.40
2018-08-11T09:01:19.437Z,20.60
2018-08-11T09:03:48.828Z,20.00
2018-08-11T09:06:19.808Z,19.90
2018-08-11T09:08:50.010Z,19.90
2018-08-11T09:11:20.699Z,19.90
2018-08-11T09:13:50.635Z,20.00
2018-08-11T09:16:22.407Z,19.80
2018-08-11T09:18:53.657Z,19.80
2018-08-11T09:21:25.369Z,20.10
2018-08-11T09:23:54.791Z,19.90
2018-08-11T09:26:24.288Z,19.90
2018-08-11T09:28:53.725Z,19.80
2018-08-11T09:31:23.243Z,20.30
2018-08-11T09:33:52.546Z,21.00
2018-08-11T09:36:22.020Z,21.00
2018-08-11T09:38:52.326Z,21.10
2018-08-11T09:41:22.641Z,20.90
2018-08-11T09:43:55.994Z,21.10
2018-08-11T09:46:25.329Z,21.30
2018-08-11T09:48:58.009Z,21.10
2018-08-11T09:51:27.501Z,21.40
2018-08-11T09:53:56.739Z,21.50
2018-08-11T09:56:26.075Z,21.70
2018-08-11T09:58:55.216Z,21.60
2018-08-11T10:01:29.244Z,21.50
2018-08-11T10:03:58.282Z,21.20
2018-08-11T10:06:27.659Z,20.80
2018-08-11T10:08:58.931Z,21.10
2018-08-11T10:11:28.060Z,21.10
2018-08-11T10:14:08.946Z,21.40
2018-08-11T10:16:38.262Z,21.50
2018-08-11T10:19:09.510Z,22.10
2018-08-11T10:21:38.734Z,22.10
2018-08-11T10:24:07.744Z,21.90
2018-08-11T10:26:36.698Z,22.00
2018-08-11T10:29:05.790Z,21.70
2018-08-11T10:31:34.897Z,21.70
2018-08-11T10:34:10.970Z,21.50
2018-08-11T10:36:39.976Z,22.00
2018-08-11T10:39:11.692Z,22.30
2018-08-11T10:41:41.441Z,22.50
2018-08-11T10:44:12.074Z,22.40
2018-08-11T10:46:41.288Z,22.40
2018-08-11T10:49:10.681Z,22.00
2018-08-11T10:51:39.902Z,22.10
2018-08-11T10:54:08.986Z,22.10
2018-08-11T10:56:39.057Z,22.40
2018-08-11T10:59:08.651Z,22.70
2018-08-11T11:01:40.048Z,22.30
2018-08-11T11:04:09.849Z,22.70
2018-08-11T11:06:39.063Z,22.60
2018-08-11T11:09:10.150Z,23.50
2018-08-11T11:11:39.993Z,23.40
2018-08-11T11:14:10.165Z,23.80
2018-08-11T11:16:39.506Z,23.50
2018-08-11T11:19:14.629Z,23.00
2018-08-11T11:21:45.948Z,23.40
2018-08-11T11:24:15.078Z,23.10
2018-08-11T11:26:44.432Z,22.70
2018-08-11T11:29:13.404Z,22.30
2018-08-11T11:31:42.477Z,22.00
2018-08-11T11:34:11.612Z,22.00
2018-08-11T11:36:40.764Z,22.30
2018-08-11T11:39:11.793Z,22.10
2018-08-11T11:41:40.726Z,22.10
2018-08-11T11:44:09.785Z,21.60
2018-08-11T11:46:39.353Z,21.40
2018-08-11T11:49:08.360Z,21.80
2018-08-11T11:51:39.537Z,22.00
2018-08-11T11:54:08.642Z,21.60
2018-08-11T11:56:37.840Z,21.10
2018-08-11T11:59:06.980Z,20.60
2018-08-11T12:01:36.401Z,20.10
2018-08-11T12:04:05.660Z,20.10
2018-08-11T12:06:34.756Z,19.80
2018-08-11T12:09:03.912Z,19.90
2018-08-11T12:11:33.063Z,20.10
2018-08-11T12:14:02.279Z,20.30
2018-08-11T12:16:31.327Z,20.30
2018-08-11T12:19:00.357Z,20.40
2018-08-11T12:21:29.315Z,19.90
2018-08-11T12:23:59.534Z,19.70
2018-08-11T12:26:58.645Z,19.80
2018-08-11T12:29:27.747Z,19.70
2018-08-11T12:31:56.710Z,19.70
2018-08-11T12:34:25.788Z,19.80
2018-08-11T12:36:55.172Z,20.00
2018-08-11T12:39:24.390Z,20.20
2018-08-11T12:41:59.880Z,20.40
2018-08-11T12:44:28.835Z,20.40
2018-08-11T12:47:00.100Z,20.90
2018-08-11T12:49:28.997Z,21.20
2018-08-11T12:51:58.021Z,21.40
2018-08-11T12:54:26.882Z,21.70
2018-08-11T12:56:56.689Z,21.70
2018-08-11T12:59:25.709Z,21.50
2018-08-11T13:01:54.785Z,21.40
2018-08-11T13:04:25.172Z,21.90
2018-08-11T13:06:54.897Z,22.00
2018-08-11T13:09:25.097Z,22.00
2018-08-11T13:11:54.283Z,21.90
2018-08-11T13:14:23.052Z,21.70
2018-08-11T13:16:52.262Z,21.60
2018-08-11T13:21:18.835Z,21.10
2018-08-11T13:23:47.568Z,20.90
2018-08-11T13:26:16.864Z,20.50
2018-08-11T13:28:45.625Z,20.30
2018-08-11T13:31:14.330Z,20.20
2018-08-11T13:33:43.110Z,20.20
2018-08-11T13:36:11.716Z,20.30
2018-08-11T13:38:44.028Z,20.30
2018-08-11T13:41:16.847Z,20.30
2018-08-11T13:43:45.484Z,20.20
2018-08-11T13:46:14.402Z,20.30
2018-08-11T13:48:44.314Z,20.50
2018-08-11T13:51:12.974Z,20.60
2018-08-11T13:53:49.522Z,20.70
2018-08-11T13:56:18.540Z,20.60
2018-08-11T13:58:47.529Z,20.40
2018-08-11T14:01:16.757Z,20.40
2018-08-11T14:03:47.191Z,20.40
2018-08-11T14:06:16.906Z,20.30
2018-08-11T14:08:46.213Z,20.50
2018-08-11T14:11:15.525Z,20.40
2018-08-11T14:13:44.697Z,20.40
2018-08-11T14:16:14.152Z,20.20
2018-08-11T14:18:43.346Z,20.30
2018-08-11T14:21:12.876Z,20.20
2018-08-11T14:23:42.068Z,20.20
2018-08-11T14:26:11.212Z,20.30
2018-08-11T14:28:40.241Z,20.50
2018-08-11T14:31:09.718Z,20.80
2018-08-11T14:33:38.814Z,21.10
2018-08-11T14:36:07.910Z,21.70
2018-08-11T14:38:36.832Z,22.30
2018-08-11T14:41:06.037Z,22.80
2018-08-11T14:43:35.170Z,22.90
2018-08-11T14:46:04.844Z,23.10
2018-08-11T14:48:33.878Z,22.90
2018-08-11T14:51:02.987Z,22.80
2018-08-11T14:53:32.101Z,22.70
2018-08-11T14:56:01.363Z,22.10
2018-08-11T14:58:38.218Z,21.50
2018-08-11T15:01:07.745Z,21.50
2018-08-11T15:03:36.991Z,21.50
2018-08-11T15:06:06.078Z,21.20
2018-08-11T15:08:39.073Z,21.10
2018-08-11T15:11:08.061Z,21.20
2018-08-11T15:13:37.714Z,21.50
2018-08-11T15:16:07.177Z,22.10
2018-08-11T15:18:36.662Z,22.80
2018-08-11T15:21:06.051Z,22.80
2018-08-11T15:23:35.469Z,22.30
2018-08-11T15:26:04.998Z,22.20
2018-08-11T15:28:34.242Z,22.30
2018-08-11T15:31:07.682Z,22.30
2018-08-11T15:33:37.412Z,22.10
2018-08-11T15:36:06.839Z,21.60
2018-08-11T15:38:36.135Z,21.20
2018-08-11T15:41:09.582Z,21.30
2018-08-11T15:43:38.853Z,21.50
2018-08-11T15:46:08.114Z,21.60
2018-08-11T15:48:37.427Z,21.40
2018-08-11T15:51:12.744Z,21.40
2018-08-11T15:53:42.350Z,21.50
2018-08-11T15:56:35.456Z,21.40
2018-08-11T15:59:09.975Z,21.50
2018-08-11T16:01:39.032Z,21.60
2018-08-11T16:04:08.393Z,22.20
2018-08-11T16:06:37.491Z,22.80
2018-08-11T16:09:09.486Z,22.90
2018-08-11T16:11:38.848Z,23.40
2018-08-11T16:14:08.940Z,23.80
2018-08-11T16:16:38.032Z,24.10
2018-08-11T16:19:07.310Z,24.10
2018-08-11T16:21:36.616Z,24.60
2018-08-11T16:24:05.896Z,24.60
2018-08-11T16:26:35.388Z,24.30
2018-08-11T16:29:04.583Z,24.50
2018-08-11T16:31:33.850Z,24.80
2018-08-11T16:34:05.319Z,24.40
2018-08-11T16:36:34.705Z,24.80
2018-08-11T16:39:04.527Z,24.70
2018-08-11T16:41:33.735Z,25.00
2018-08-11T16:44:03.207Z,25.10
2018-08-11T16:46:32.440Z,24.70
2018-08-11T16:49:13.385Z,24.80
2018-08-11T16:51:42.531Z,24.80
2018-08-11T16:54:11.710Z,24.70
2018-08-11T16:56:46.552Z,24.40
2018-08-11T16:59:15.977Z,24.20
2018-08-11T17:01:45.405Z,24.30
2018-08-11T17:04:20.478Z,24.30
2018-08-11T17:06:49.664Z,24.10
2018-08-11T17:09:25.347Z,23.80
2018-08-11T17:11:54.575Z,24.20
2018-08-11T17:14:23.839Z,24.20
2018-08-11T17:16:53.001Z,24.10
2018-08-11T17:19:22.223Z,24.40
2018-08-11T17:21:51.600Z,24.10
2018-08-11T17:24:20.768Z,23.80
2018-08-11T17:26:49.931Z,24.00
2018-08-11T17:29:19.190Z,23.30
2018-08-11T17:31:48.240Z,23.40
2018-08-11T17:34:17.559Z,23.50
2018-08-11T17:36:46.931Z,23.60
2018-08-11T17:39:16.351Z,23.40
2018-08-11T17:41:45.622Z,23.60
2018-08-11T17:44:15.021Z,23.20
2018-08-11T17:46:44.714Z,23.40
2018-08-11T17:49:14.412Z,23.50
2018-08-11T17:51:43.664Z,23.60
2018-08-11T17:54:12.769Z,23.70
2018-08-11T17:56:42.049Z,23.70
2018-08-11T17:59:11.344Z,23.90
2018-08-11T18:01:40.971Z,24.00
2018-08-11T18:04:10.207Z,23.80
2018-08-11T18:06:39.525Z,24.00
2018-08-11T18:09:11.089Z,23.70
2018-08-11T18:11:40.869Z,23.70
2018-08-11T18:14:10.263Z,23.70
2018-08-11T18:16:39.481Z,23.70
2018-08-11T18:19:08.593Z,23.80
2018-08-11T18:21:37.915Z,23.50
2018-08-11T18:24:10.521Z,23.40
2018-08-11T18:26:39.721Z,23.40
2018-08-11T18:29:09.113Z,23.30
2018-08-11T18:31:41.028Z,23.20
2018-08-11T18:34:16.845Z,23.10
2018-08-11T18:36:45.892Z,23.10
2018-08-11T18:39:15.557Z,22.70
2018-08-11T18:41:49.520Z,22.60
2018-08-11T18:44:22.979Z,22.20
2018-08-11T18:47:01.580Z,22.10
2018-08-11T18:49:30.898Z,22.00
2018-08-11T18:55:00.174Z,21.90
2018-08-11T18:57:46.234Z,21.80
2018-08-11T19:00:17.709Z,21.70
2018-08-11T19:02:47.732Z,21.60
2018-08-11T19:05:24.440Z,21.50
2018-08-11T19:07:54.205Z,21.40
2018-08-11T19:10:23.503Z,21.30
2018-08-11T19:12:52.750Z,21.20
2018-08-11T19:15:22.177Z,21.10
2018-08-11T19:17:51.456Z,21.00
2018-08-11T19:20:20.555Z,21.00
2018-08-11T19:22:49.822Z,20.90
2018-08-11T19:25:19.065Z,20.70
2018-08-11T19:27:48.354Z,20.60
2018-08-11T19:30:18.972Z,20.50
2018-08-11T19:32:48.511Z,20.40
2018-08-11T19:35:18.288Z,20.30
2018-08-11T19:37:47.821Z,20.20
2018-08-11T19:40:16.987Z,20.10
2018-08-11T19:42:46.391Z,20.00
2018-08-11T19:45:15.463Z,19.90
2018-08-11T19:47:44.722Z,19.90
2018-08-11T19:50:13.918Z,19.80
2018-08-11T19:52:43.377Z,19.70
2018-08-11T19:55:12.659Z,19.60
2018-08-11T19:57:42.164Z,19.60
2018-08-11T20:00:23.177Z,19.50
2018-08-11T20:02:52.340Z,19.40
2018-08-11T20:05:21.413Z,19.30
2018-08-11T20:07:50.775Z,19.20
2018-08-11T20:10:20.123Z,19.20
2018-08-11T20:12:49.426Z,19.10
2018-08-11T20:15:18.776Z,19.00
2018-08-11T20:17:48.186Z,19.00
2018-08-11T20:20:17.375Z,18.90
2018-08-11T20:22:46.615Z,18.80
2018-08-11T20:25:15.926Z,18.70
2018-08-11T20:28:01.309Z,18.70
2018-08-11T20:30:30.432Z,18.60
2018-08-11T20:32:59.555Z,18.50
2018-08-11T20:35:28.831Z,18.40
2018-08-11T20:37:58.067Z,18.40
2018-08-11T20:40:27.263Z,18.30
2018-08-11T20:42:56.727Z,18.20
2018-08-11T20:45:26.062Z,18.20
2018-08-11T20:48:15.022Z,18.10
2018-08-11T20:50:44.499Z,18.00
2018-08-11T20:53:13.822Z,17.90
2018-08-11T20:55:43.175Z,17.90
2018-08-11T20:58:12.403Z,17.80
2018-08-11T21:00:41.700Z,17.70
2018-08-11T21:03:11.966Z,17.60
2018-08-11T21:06:00.546Z,17.60
2018-08-11T21:08:29.791Z,17.50
2018-08-11T21:10:59.197Z,17.40
2018-08-11T21:13:28.610Z,17.40
2018-08-11T21:15:58.163Z,17.30
2018-08-11T21:18:27.346Z,17.30
2018-08-11T21:20:56.474Z,17.20
2018-08-11T21:23:25.910Z,17.20
2018-08-11T21:25:55.175Z,17.10
2018-08-11T21:28:24.317Z,17.10
2018-08-11T21:30:53.712Z,17.10
2018-08-11T21:33:22.941Z,17.00
2018-08-11T21:35:52.186Z,16.90
2018-08-11T21:38:21.350Z,16.90
2018-08-11T21:40:51.616Z,16.80
2018-08-11T21:43:20.839Z,16.70
2018-08-11T21:45:50.293Z,16.70
2018-08-11T21:48:19.823Z,16.70
2018-08-11T21:51:06.430Z,16.70
2018-08-11T21:53:36.669Z,16.60
2018-08-11T21:56:05.981Z,16.50
2018-08-11T21:58:35.246Z,16.50
2018-08-11T22:01:11.728Z,16.50
2018-08-11T22:03:41.995Z,16.40
2018-08-11T22:06:11.117Z,16.40
2018-08-11T22:08:40.564Z,16.30
2018-08-11T22:11:10.279Z,16.30
2018-08-11T22:13:49.373Z,16.20
2018-08-11T22:16:18.829Z,16.10
2018-08-11T22:18:49.001Z,16.10
2018-08-11T22:21:18.868Z,16.10
2018-08-11T22:23:48.283Z,16.00
2018-08-11T22:26:17.561Z,16.00
2018-08-11T22:28:46.983Z,15.90
2018-08-11T22:31:17.432Z,15.80
2018-08-11T22:33:47.050Z,15.80
2018-08-11T22:36:16.141Z,15.80
2018-08-11T22:38:45.996Z,15.70
2018-08-11T22:41:15.180Z,15.70
2018-08-11T22:43:45.842Z,15.60
2018-08-11T22:46:16.967Z,15.60
2018-08-11T22:48:46.403Z,15.60
2018-08-11T22:51:15.586Z,15.60
2018-08-11T22:53:47.992Z,15.60
2018-08-11T22:56:17.263Z,15.50
2018-08-11T22:58:46.498Z,15.40
2018-08-11T23:01:15.784Z,15.40
2018-08-11T23:03:44.927Z,15.40
2018-08-11T23:06:13.983Z,15.40
2018-08-11T23:08:43.428Z,15.40
2018-08-11T23:11:14.647Z,15.40
2018-08-11T23:13:44.403Z,15.30
2018-08-11T23:16:13.828Z,15.20
2018-08-11T23:18:42.984Z,15.20
2018-08-11T23:21:12.663Z,15.20
2018-08-11T23:23:41.756Z,15.20
2018-08-11T23:26:10.977Z,15.20
2018-08-11T23:28:40.066Z,15.10
2018-08-11T23:31:09.406Z,15.10
2018-08-11T23:33:38.523Z,15.10
2018-08-11T23:36:07.891Z,15.00
2018-08-11T23:38:36.926Z,15.00
2018-08-11T23:41:05.871Z,14.90
2018-08-11T23:43:35.065Z,14.90
2018-08-11T23:46:04.040Z,14.90
2018-08-11T23:48:33.158Z,14.80
2018-08-11T23:51:02.317Z,14.70
2018-08-11T23:53:31.314Z,14.70
2018-08-11T23:56:00.600Z,14.70
2018-08-11T23:58:32.002Z,14.70
